createdAt,value
2018-08-27T00:02:18.408Z,13.57
2018-08-27T00:04:46.694Z,13.47
2018-08-27T00:07:14.985Z,13.49
2018-08-27T00:09:43.145Z,13.51
2018-08-27T00:12:11.314Z,13.51
2018-08-27T00:14:39.490Z,13.51
2018-08-27T00:17:07.729Z,13.48
2018-08-27T00:19:35.901Z,13.41
2018-08-27T00:22:04.074Z,13.39
2018-08-27T00:24:32.241Z,13.36
2018-08-27T00:27:00.450Z,13.35
2018-08-27T00:29:28.669Z,13.45
2018-08-27T00:31:56.874Z,13.38
2018-08-27T00:34:25.314Z,13.59
2018-08-27T00:36:53.487Z,13.55
2018-08-27T00:39:22.097Z,13.53
2018-08-27T00:41:50.855Z,13.61
2018-08-27T00:44:19.247Z,13.57
2018-08-27T00:46:47.613Z,13.59
2018-08-27T00:49:15.973Z,13.56
2018-08-27T00:51:44.169Z,13.47
2018-08-27T00:54:12.393Z,13.50
2018-08-27T00:56:40.641Z,13.51
2018-08-27T00:59:08.871Z,13.45
2018-08-27T01:01:37.033Z,13.53
2018-08-27T01:04:05.357Z,13.51
2018-08-27T01:06:33.593Z,13.45
2018-08-27T01:09:01.805Z,13.46
2018-08-27T01:11:30.057Z,13.40
2018-08-27T01:13:58.237Z,13.56
2018-08-27T01:16:26.426Z,13.67
2018-08-27T01:18:54.637Z,13.73
2018-08-27T01:21:22.925Z,13.78
2018-08-27T01:23:51.193Z,13.77
2018-08-27T01:26:19.377Z,13.85
2018-08-27T01:28:47.582Z,13.96
2018-08-27T01:31:15.769Z,14.08
2018-08-27T01:33:44.053Z,14.13
2018-08-27T01:36:12.249Z,14.01
2018-08-27T01:38:40.529Z,14.02
2018-08-27T01:41:08.701Z,13.94
2018-08-27T01:43:36.881Z,13.90
2018-08-27T01:46:05.081Z,13.95
2018-08-27T01:48:33.277Z,13.97
2018-08-27T01:51:01.461Z,14.09
2018-08-27T01:53:29.638Z,14.06
2018-08-27T01:55:57.850Z,14.09
2018-08-27T01:58:26.156Z,14.08
2018-08-27T02:00:54.397Z,14.07
2018-08-27T02:03:22.585Z,13.90
2018-08-27T02:05:50.789Z,13.98
2018-08-27T02:08:19.081Z,14.02
2018-08-27T02:10:47.245Z,14.10
2018-08-27T02:13:15.464Z,14.10
2018-08-27T02:15:43.726Z,14.23
2018-08-27T02:18:11.883Z,14.18
2018-08-27T02:20:40.053Z,14.15
2018-08-27T02:23:08.233Z,14.17
2018-08-27T02:25:36.475Z,14.13
2018-08-27T02:28:04.661Z,14.17
2018-08-27T02:30:32.841Z,14.20
2018-08-27T02:33:01.011Z,14.18
2018-08-27T02:35:29.244Z,14.28
2018-08-27T02:37:57.398Z,14.32
2018-08-27T02:40:26.313Z,14.25
2018-08-27T02:42:54.884Z,14.20
2018-08-27T02:45:23.041Z,14.23
2018-08-27T02:47:51.265Z,14.24
2018-08-27T02:50:19.474Z,14.36
2018-08-27T02:52:47.633Z,14.31
2018-08-27T02:55:15.813Z,14.26
2018-08-27T02:57:43.989Z,14.22
2018-08-27T03:00:12.211Z,14.24
2018-08-27T03:02:40.385Z,14.26
2018-08-27T03:05:08.717Z,14.40
2018-08-27T03:07:37.110Z,14.30
2018-08-27T03:10:05.322Z,14.38
2018-08-27T03:12:33.503Z,14.34
2018-08-27T03:15:01.738Z,14.36
2018-08-27T03:17:29.910Z,14.33
2018-08-27T03:19:58.181Z,14.37
2018-08-27T03:22:26.357Z,14.30
2018-08-27T03:24:54.588Z,14.27
2018-08-27T03:27:22.758Z,14.22
2018-08-27T03:29:50.914Z,14.09
2018-08-27T03:32:19.075Z,14.13
2018-08-27T03:34:47.245Z,14.14
2018-08-27T03:37:15.516Z,14.11
2018-08-27T03:39:43.691Z,14.27
2018-08-27T03:42:11.907Z,14.30
2018-08-27T03:44:40.070Z,14.38
2018-08-27T03:47:08.261Z,14.45
2018-08-27T03:49:36.465Z,14.64
2018-08-27T03:52:04.613Z,14.61
2018-08-27T03:54:32.817Z,14.70
2018-08-27T03:57:00.993Z,14.70
2018-08-27T03:59:29.204Z,14.72
2018-08-27T04:01:57.360Z,14.85
2018-08-27T04:04:25.561Z,14.84
2018-08-27T04:06:53.753Z,14.91
2018-08-27T04:09:21.913Z,14.89
2018-08-27T04:11:50.101Z,14.92
2018-08-27T04:14:18.309Z,14.97
2018-08-27T04:16:46.501Z,14.92
2018-08-27T04:19:14.677Z,14.98
2018-08-27T04:21:43.074Z,14.95
2018-08-27T04:24:11.269Z,14.98
2018-08-27T04:26:39.425Z,15.05
2018-08-27T04:29:07.621Z,15.06
2018-08-27T04:31:35.805Z,15.09
2018-08-27T04:34:04.026Z,15.10
2018-08-27T04:36:32.311Z,15.17
2018-08-27T04:39:00.583Z,15.19
2018-08-27T04:41:28.789Z,15.26
2018-08-27T04:43:56.986Z,15.22
2018-08-27T04:46:25.154Z,15.27
2018-08-27T04:48:53.329Z,15.26
2018-08-27T04:51:21.510Z,15.22
2018-08-27T04:53:49.673Z,15.25
2018-08-27T04:56:17.854Z,15.16
2018-08-27T04:58:47.154Z,15.27
2018-08-27T05:01:15.328Z,15.25
2018-08-27T05:03:43.514Z,15.24
2018-08-27T05:06:11.674Z,15.23
2018-08-27T05:08:39.837Z,15.19
2018-08-27T05:11:08.014Z,15.19
2018-08-27T05:13:36.186Z,15.20
2018-08-27T05:16:04.371Z,15.13
2018-08-27T05:18:32.545Z,15.08
2018-08-27T05:21:00.734Z,15.19
2018-08-27T05:23:28.902Z,15.17
2018-08-27T05:25:57.091Z,15.16
2018-08-27T05:28:25.253Z,15.08
2018-08-27T05:30:53.491Z,15.31
2018-08-27T05:33:21.649Z,15.30
2018-08-27T05:35:49.810Z,15.33
2018-08-27T05:38:18.093Z,15.32
2018-08-27T05:40:46.169Z,15.47
2018-08-27T05:43:14.341Z,15.56
2018-08-27T05:45:42.521Z,15.72
2018-08-27T05:48:10.717Z,15.83
2018-08-27T05:50:38.895Z,15.90
2018-08-27T05:53:07.062Z,15.89
2018-08-27T05:55:35.314Z,15.88
2018-08-27T05:58:03.497Z,15.86
2018-08-27T06:00:31.665Z,16.00
2018-08-27T06:02:59.846Z,16.02
2018-08-27T06:05:28.005Z,16.07
2018-08-27T06:07:56.169Z,16.03
2018-08-27T06:10:24.351Z,16.10
2018-08-27T06:12:52.529Z,15.96
2018-08-27T06:15:20.741Z,15.98
2018-08-27T06:17:49.003Z,16.04
2018-08-27T06:20:17.173Z,16.14
2018-08-27T06:22:45.338Z,16.19
2018-08-27T06:25:13.580Z,16.48
2018-08-27T06:27:41.673Z,16.75
2018-08-27T06:30:09.900Z,17.28
2018-08-27T06:32:38.157Z,17.46
2018-08-27T06:35:06.333Z,17.61
2018-08-27T06:37:34.496Z,17.42
2018-08-27T06:40:02.682Z,17.19
2018-08-27T06:42:30.841Z,17.24
2018-08-27T06:44:59.019Z,17.29
2018-08-27T06:47:27.218Z,17.27
2018-08-27T06:49:55.411Z,17.50
2018-08-27T06:52:23.583Z,17.84
2018-08-27T06:54:51.763Z,17.90
2018-08-27T06:57:19.925Z,17.86
2018-08-27T06:59:48.099Z,17.88
2018-08-27T07:02:16.351Z,18.05
2018-08-27T07:04:44.513Z,18.09
2018-08-27T07:07:12.694Z,18.05
2018-08-27T07:09:40.919Z,18.15
2018-08-27T07:12:09.145Z,18.16
2018-08-27T07:14:37.593Z,18.33
2018-08-27T07:17:06.321Z,18.41
2018-08-27T07:19:34.962Z,18.49
2018-08-27T07:22:03.121Z,18.57
2018-08-27T07:24:31.310Z,18.74
2018-08-27T07:26:59.497Z,18.73
2018-08-27T07:29:27.740Z,18.84
2018-08-27T07:31:55.913Z,18.97
2018-08-27T07:34:24.073Z,19.13
2018-08-27T07:36:52.237Z,19.18
2018-08-27T07:39:20.413Z,19.30
2018-08-27T07:41:48.574Z,19.51
2018-08-27T07:44:16.770Z,19.42
2018-08-27T07:46:44.953Z,19.51
2018-08-27T07:49:13.113Z,19.60
2018-08-27T07:51:41.319Z,19.87
2018-08-27T07:54:09.502Z,20.12
2018-08-27T07:56:37.781Z,20.00
2018-08-27T07:59:05.913Z,20.02
2018-08-27T08:01:34.550Z,20.11
2018-08-27T08:04:02.794Z,20.16
2018-08-27T08:06:30.969Z,20.13
2018-08-27T08:08:59.153Z,19.90
2018-08-27T08:11:27.337Z,19.78
2018-08-27T08:13:55.581Z,19.82
2018-08-27T08:16:23.764Z,19.78
2018-08-27T08:18:51.929Z,19.84
2018-08-27T08:21:20.100Z,20.07
2018-08-27T08:23:48.361Z,20.00
2018-08-27T08:26:16.549Z,20.10
2018-08-27T08:28:44.729Z,19.91
2018-08-27T08:31:12.907Z,19.89
2018-08-27T08:33:41.095Z,19.90
2018-08-27T08:36:09.461Z,19.92
2018-08-27T08:38:37.766Z,20.07
2018-08-27T08:41:05.958Z,19.92
2018-08-27T08:43:34.135Z,20.13
2018-08-27T08:46:02.585Z,20.08
2018-08-27T08:49:01.635Z,20.16
2018-08-27T08:51:29.817Z,20.15
2018-08-27T08:53:58.017Z,20.36
2018-08-27T08:56:26.206Z,20.69
2018-08-27T08:58:54.401Z,20.76
2018-08-27T09:01:22.682Z,20.99
2018-08-27T09:03:50.754Z,20.71
2018-08-27T09:06:18.972Z,20.25
2018-08-27T09:08:47.103Z,20.34
2018-08-27T09:11:15.293Z,20.58
2018-08-27T09:13:43.477Z,20.49
2018-08-27T09:16:11.653Z,20.53
2018-08-27T09:18:39.861Z,20.58
2018-08-27T09:21:08.044Z,20.37
2018-08-27T09:23:36.320Z,20.22
2018-08-27T09:26:04.457Z,19.92
2018-08-27T09:28:32.643Z,20.07
2018-08-27T09:31:00.842Z,20.02
2018-08-27T09:33:29.009Z,19.66
2018-08-27T09:35:57.206Z,19.65
2018-08-27T09:38:25.401Z,19.57
2018-08-27T09:40:53.569Z,19.50
2018-08-27T09:43:21.862Z,19.56
2018-08-27T09:45:50.089Z,19.58
2018-08-27T09:48:18.222Z,19.64
2018-08-27T09:50:46.423Z,19.75
2018-08-27T09:53:14.643Z,19.52
2018-08-27T09:55:42.777Z,19.76
2018-08-27T09:58:10.974Z,19.96
2018-08-27T10:00:44.446Z,20.16
2018-08-27T10:03:12.632Z,20.07
2018-08-27T10:05:40.813Z,20.06
2018-08-27T10:08:08.989Z,20.04
2018-08-27T10:10:37.181Z,20.41
2018-08-27T10:13:05.413Z,20.49
2018-08-27T10:15:33.609Z,20.08
2018-08-27T10:18:01.790Z,20.42
2018-08-27T10:20:29.985Z,20.41
2018-08-27T10:22:58.196Z,20.52
2018-08-27T10:25:26.366Z,20.63
2018-08-27T10:27:54.577Z,20.76
2018-08-27T10:30:22.750Z,20.76
2018-08-27T10:32:50.977Z,21.32
2018-08-27T10:35:19.157Z,21.40
2018-08-27T10:37:47.365Z,21.51
2018-08-27T10:40:15.551Z,21.32
2018-08-27T10:42:43.798Z,21.26
2018-08-27T10:45:13.090Z,21.37
2018-08-27T10:47:43.252Z,20.97
2018-08-27T10:50:11.506Z,20.79
2018-08-27T10:52:39.614Z,21.31
2018-08-27T10:55:07.811Z,21.49
2018-08-27T10:57:35.983Z,21.21
2018-08-27T11:00:04.261Z,21.07
2018-08-27T11:02:32.433Z,21.46
2018-08-27T11:05:00.601Z,21.35
2018-08-27T11:07:28.761Z,21.36
2018-08-27T11:09:56.950Z,21.74
2018-08-27T11:12:25.130Z,21.68
2018-08-27T11:14:53.353Z,21.43
2018-08-27T11:17:22.381Z,21.65
2018-08-27T11:19:50.641Z,21.67
2018-08-27T11:22:18.870Z,21.95
2018-08-27T11:24:47.061Z,22.06
2018-08-27T11:27:15.239Z,22.28
2018-08-27T11:29:43.482Z,22.45
2018-08-27T11:32:11.694Z,22.53
2018-08-27T11:34:39.981Z,22.69
2018-08-27T11:37:08.209Z,23.04
2018-08-27T11:39:36.418Z,23.22
2018-08-27T11:42:04.693Z,22.93
2018-08-27T11:44:32.897Z,22.85
2018-08-27T11:47:01.314Z,23.22
2018-08-27T11:49:29.508Z,23.18
2018-08-27T11:51:57.725Z,22.62
2018-08-27T11:54:26.013Z,22.68
2018-08-27T11:56:54.209Z,22.82
2018-08-27T11:59:22.364Z,22.71
2018-08-27T12:01:50.561Z,22.93
2018-08-27T12:04:18.749Z,22.62
2018-08-27T12:06:46.973Z,22.61
2018-08-27T12:09:15.157Z,22.64
2018-08-27T12:11:43.401Z,22.87
2018-08-27T12:14:11.562Z,22.32
2018-08-27T12:16:39.780Z,22.41
2018-08-27T12:19:09.038Z,22.42
2018-08-27T12:21:37.262Z,22.15
2018-08-27T12:24:05.525Z,21.95
2018-08-27T12:26:33.685Z,22.43
2018-08-27T12:29:01.846Z,22.50
2018-08-27T12:31:30.033Z,22.45
2018-08-27T12:33:58.201Z,22.80
2018-08-27T12:36:26.378Z,23.05
2018-08-27T12:38:54.558Z,22.88
2018-08-27T12:41:22.793Z,22.39
2018-08-27T12:43:50.954Z,22.90
2018-08-27T12:46:19.137Z,23.02
2018-08-27T12:48:47.313Z,22.82
2018-08-27T12:51:15.509Z,23.11
2018-08-27T12:53:43.669Z,23.13
2018-08-27T12:56:11.838Z,22.95
2018-08-27T12:58:40.079Z,22.67
2018-08-27T13:01:08.221Z,23.25
2018-08-27T13:03:36.389Z,23.38
2018-08-27T13:06:04.569Z,23.36
2018-08-27T13:08:32.761Z,24.02
2018-08-27T13:11:00.933Z,23.89
2018-08-27T13:13:29.110Z,23.84
2018-08-27T13:15:57.298Z,23.73
2018-08-27T13:18:25.461Z,23.74
2018-08-27T13:20:53.654Z,23.65
2018-08-27T13:23:21.865Z,23.76
2018-08-27T13:25:50.089Z,23.74
2018-08-27T13:28:18.222Z,23.91
2018-08-27T13:31:00.917Z,23.83
2018-08-27T13:33:29.091Z,23.52
2018-08-27T13:35:57.258Z,23.68
2018-08-27T13:38:25.469Z,23.90
2018-08-27T13:40:53.642Z,24.07
2018-08-27T13:43:21.838Z,24.24
2018-08-27T13:45:50.094Z,24.19
2018-08-27T13:48:18.270Z,24.03
2018-08-27T13:50:46.423Z,24.15
2018-08-27T13:53:14.607Z,23.76
2018-08-27T13:55:42.787Z,23.64
2018-08-27T13:58:10.949Z,23.93
2018-08-27T14:00:39.137Z,23.56
2018-08-27T14:03:07.385Z,23.94
2018-08-27T14:05:35.569Z,23.96
2018-08-27T14:08:03.761Z,23.88
2018-08-27T14:10:31.966Z,23.68
2018-08-27T14:13:00.102Z,24.37
2018-08-27T14:15:28.404Z,24.57
2018-08-27T14:17:56.494Z,24.00
2018-08-27T14:20:24.970Z,24.00
2018-08-27T14:22:53.150Z,23.75
2018-08-27T14:25:21.353Z,24.00
2018-08-27T14:27:49.543Z,24.18
2018-08-27T14:30:17.821Z,24.00
2018-08-27T14:32:46.016Z,24.15
2018-08-27T14:35:14.157Z,24.11
2018-08-27T14:37:42.343Z,24.23
2018-08-27T14:40:10.861Z,24.38
2018-08-27T14:42:39.100Z,24.33
2018-08-27T14:45:08.026Z,24.08
2018-08-27T14:47:36.134Z,24.15
2018-08-27T14:50:04.465Z,24.09
2018-08-27T14:52:32.650Z,24.05
2018-08-27T14:55:00.817Z,24.14
2018-08-27T14:57:29.026Z,24.13
2018-08-27T14:59:57.210Z,24.18
2018-08-27T15:02:25.377Z,23.94
2018-08-27T15:04:53.553Z,24.13
2018-08-27T15:07:21.745Z,24.12
2018-08-27T15:09:49.922Z,24.32
2018-08-27T15:12:18.133Z,24.31
2018-08-27T15:14:46.313Z,23.94
2018-08-27T15:17:14.487Z,24.22
2018-08-27T15:19:42.673Z,24.14
2018-08-27T15:22:11.101Z,23.99
2018-08-27T15:24:39.300Z,23.73
2018-08-27T15:27:07.479Z,23.86
2018-08-27T15:29:35.699Z,23.67
2018-08-27T15:32:03.925Z,23.67
2018-08-27T15:34:32.191Z,23.57
2018-08-27T15:37:00.453Z,23.41
2018-08-27T15:39:28.686Z,23.44
2018-08-27T15:41:56.913Z,23.63
2018-08-27T15:44:25.116Z,23.62
2018-08-27T15:46:53.282Z,23.76
2018-08-27T15:49:21.486Z,23.69
2018-08-27T15:51:49.692Z,23.73
2018-08-27T15:54:17.877Z,23.65
2018-08-27T15:56:46.061Z,23.67
2018-08-27T15:59:14.245Z,23.74
2018-08-27T16:01:42.506Z,23.49
2018-08-27T16:04:10.716Z,23.56
2018-08-27T16:06:38.853Z,23.42
2018-08-27T16:09:07.123Z,23.49
2018-08-27T16:11:35.296Z,23.40
2018-08-27T16:14:03.451Z,23.36
2018-08-27T16:16:31.686Z,23.53
2018-08-27T16:18:59.886Z,23.50
2018-08-27T16:21:28.078Z,23.46
2018-08-27T16:23:56.254Z,23.41
2018-08-27T16:26:24.473Z,23.42
2018-08-27T16:28:52.722Z,23.36
2018-08-27T16:31:20.893Z,23.31
2018-08-27T16:33:49.090Z,23.32
2018-08-27T16:36:17.378Z,23.34
2018-08-27T16:38:45.541Z,23.38
2018-08-27T16:41:13.738Z,23.52
2018-08-27T16:43:41.965Z,23.27
2018-08-27T16:46:10.149Z,23.13
2018-08-27T16:48:38.342Z,23.11
2018-08-27T16:51:06.601Z,23.12
2018-08-27T16:53:36.325Z,23.04
2018-08-27T16:56:04.782Z,23.01
2018-08-27T16:58:33.029Z,23.04
2018-08-27T17:01:01.121Z,22.98
2018-08-27T17:03:29.317Z,22.93
2018-08-27T17:05:57.477Z,22.90
2018-08-27T17:08:25.649Z,22.96
2018-08-27T17:10:53.830Z,23.02
2018-08-27T17:13:21.997Z,22.89
2018-08-27T17:15:50.165Z,22.95
2018-08-27T17:18:18.383Z,22.91
2018-08-27T17:20:46.586Z,22.72
2018-08-27T17:23:14.770Z,22.60
2018-08-27T17:25:42.953Z,22.59
2018-08-27T17:28:11.109Z,22.47
2018-08-27T17:30:39.394Z,22.43
2018-08-27T17:33:07.673Z,22.38
2018-08-27T17:35:35.902Z,22.37
2018-08-27T17:38:04.205Z,22.36
2018-08-27T17:40:32.434Z,22.37
2018-08-27T17:43:00.649Z,22.27
2018-08-27T17:45:28.880Z,22.23
2018-08-27T17:47:57.038Z,22.21
2018-08-27T17:50:25.330Z,22.19
2018-08-27T17:52:53.513Z,22.12
2018-08-27T17:55:21.718Z,22.07
2018-08-27T17:57:49.905Z,22.07
2018-08-27T18:00:18.061Z,22.04
2018-08-27T18:02:46.237Z,21.98
2018-08-27T18:05:15.006Z,21.95
2018-08-27T18:07:43.184Z,21.94
2018-08-27T18:10:11.409Z,21.94
2018-08-27T18:12:39.585Z,21.87
2018-08-27T18:15:09.050Z,21.86
2018-08-27T18:17:37.739Z,21.75
2018-08-27T18:20:06.066Z,21.74
2018-08-27T18:22:34.339Z,21.73
2018-08-27T18:25:02.533Z,21.73
2018-08-27T18:27:30.673Z,21.77
2018-08-27T18:29:58.858Z,21.70
2018-08-27T18:32:27.187Z,21.66
2018-08-27T18:34:56.422Z,21.65
2018-08-27T18:37:24.735Z,21.56
2018-08-27T18:39:53.018Z,21.58
2018-08-27T18:42:21.249Z,21.57
2018-08-27T18:44:49.426Z,21.49
2018-08-27T18:47:17.614Z,21.47
2018-08-27T18:49:45.818Z,21.40
2018-08-27T18:52:14.920Z,21.33
2018-08-27T18:54:43.228Z,21.33
2018-08-27T18:57:11.586Z,21.26
2018-08-27T18:59:39.776Z,21.37
2018-08-27T19:02:08.182Z,21.38
2018-08-27T19:04:36.411Z,21.29
2018-08-27T19:07:05.293Z,21.22
2018-08-27T19:09:33.669Z,21.15
2018-08-27T19:12:02.011Z,21.17
2018-08-27T19:14:30.238Z,21.13
2018-08-27T19:16:58.415Z,21.08
2018-08-27T19:19:26.637Z,20.97
2018-08-27T19:21:54.813Z,20.95
2018-08-27T19:24:23.055Z,21.01
2018-08-27T19:26:51.201Z,20.96
2018-08-27T19:29:19.401Z,20.90
2018-08-27T19:31:47.603Z,20.98
2018-08-27T19:34:15.769Z,20.85
2018-08-27T19:36:44.076Z,20.75
2018-08-27T19:39:12.746Z,20.61
2018-08-27T19:41:40.895Z,20.53
2018-08-27T19:44:09.452Z,20.38
2018-08-27T19:46:37.705Z,20.25
2018-08-27T19:49:05.984Z,20.20
2018-08-27T19:51:34.330Z,20.11
2018-08-27T19:54:02.565Z,20.06
2018-08-27T19:56:30.829Z,20.01
2018-08-27T19:58:59.081Z,19.97
2018-08-27T20:01:27.274Z,19.86
2018-08-27T20:03:57.911Z,19.85
2018-08-27T20:06:26.094Z,19.80
2018-08-27T20:08:54.345Z,19.76
2018-08-27T20:11:22.600Z,19.75
2018-08-27T20:13:50.782Z,19.72
2018-08-27T20:16:19.059Z,19.64
2018-08-27T20:18:48.018Z,19.65
2018-08-27T20:21:16.241Z,19.47
2018-08-27T20:23:44.567Z,19.38
2018-08-27T20:26:12.778Z,19.30
2018-08-27T20:28:40.907Z,19.25
2018-08-27T20:31:09.123Z,19.23
2018-08-27T20:33:37.310Z,19.15
2018-08-27T20:36:05.482Z,19.23
2018-08-27T20:38:33.654Z,19.16
2018-08-27T20:41:01.862Z,18.85
2018-08-27T20:43:30.046Z,18.90
2018-08-27T20:45:58.253Z,18.86
2018-08-27T20:48:26.521Z,18.87
2018-08-27T20:50:54.802Z,19.05
2018-08-27T20:53:23.015Z,19.05
2018-08-27T20:55:51.285Z,18.94
2018-08-27T20:58:19.467Z,18.88
2018-08-27T21:00:47.693Z,18.68
2018-08-27T21:03:16.077Z,18.88
2018-08-27T21:05:44.350Z,18.81
2018-08-27T21:08:12.549Z,18.74
2018-08-27T21:10:40.866Z,18.55
2018-08-27T21:13:09.285Z,18.31
2018-08-27T21:15:37.478Z,18.24
2018-08-27T21:18:05.662Z,18.20
2018-08-27T21:20:33.881Z,18.05
2018-08-27T21:23:02.186Z,18.00
2018-08-27T21:25:30.442Z,18.03
2018-08-27T21:27:58.630Z,18.03
2018-08-27T21:30:26.848Z,17.91
2018-08-27T21:32:55.130Z,17.98
2018-08-27T21:35:23.523Z,18.12
2018-08-27T21:37:51.697Z,18.03
2018-08-27T21:40:19.977Z,18.00
2018-08-27T21:42:48.165Z,17.99
2018-08-27T21:45:16.371Z,18.07
2018-08-27T21:47:44.634Z,18.04
2018-08-27T21:50:12.885Z,18.06
2018-08-27T21:52:41.125Z,18.10
2018-08-27T21:55:09.445Z,18.29
2018-08-27T21:57:37.705Z,18.47
2018-08-27T22:00:06.662Z,18.38
2018-08-27T22:02:40.323Z,18.34
2018-08-27T22:13:39.929Z,18.53
2018-08-27T22:16:08.941Z,18.73
2018-08-27T22:18:37.106Z,18.72
2018-08-27T22:21:05.621Z,18.61
2018-08-27T22:23:33.802Z,18.52
2018-08-27T22:26:01.966Z,18.48
2018-08-27T22:28:30.131Z,18.40
2018-08-27T22:30:58.385Z,18.39
2018-08-27T22:33:26.553Z,18.35
2018-08-27T22:35:54.733Z,18.25
2018-08-27T22:38:22.977Z,18.33
2018-08-27T22:40:51.225Z,18.31
2018-08-27T22:43:19.501Z,18.39
2018-08-27T22:45:47.694Z,18.59
2018-08-27T22:48:15.858Z,18.68
2018-08-27T22:50:44.101Z,18.67
2018-08-27T22:53:12.365Z,18.66
2018-08-27T22:55:40.681Z,18.75
2018-08-27T22:58:08.933Z,18.86
2018-08-27T23:00:37.182Z,18.74
2018-08-27T23:03:10.769Z,18.49
2018-08-27T23:05:39.061Z,18.51
2018-08-27T23:08:07.305Z,18.50
2018-08-27T23:10:35.653Z,18.55
2018-08-27T23:13:03.931Z,18.49
2018-08-27T23:15:32.185Z,18.39
2018-08-27T23:18:00.465Z,18.37
2018-08-27T23:20:28.704Z,18.22
2018-08-27T23:22:56.905Z,18.14
2018-08-27T23:25:25.315Z,18.24
2018-08-27T23:27:53.685Z,18.33
2018-08-27T23:30:21.958Z,18.25
2018-08-27T23:32:50.382Z,18.25
2018-08-27T23:35:18.719Z,18.21
2018-08-27T23:37:46.978Z,18.27
2018-08-27T23:40:15.247Z,18.16
2018-08-27T23:42:43.517Z,18.18
2018-08-27T23:45:11.760Z,18.21
2018-08-27T23:47:39.963Z,18.13
2018-08-27T23:50:08.286Z,18.13
2018-08-27T23:52:36.707Z,18.16
2018-08-27T23:55:04.947Z,18.30
2018-08-27T23:57:33.196Z,18.21
